Time;durP1;ratioP1;P1;durP2;ratioP2;P2;SDS_P1;SDS_P2;PMS_P1;PMS_P2;Temp;Humidity;BMP_temperature;BMP_pressure;BME280_temperature;BME280_humidity;BME280_pressure;Samples;Min_cycle;Max_cycle;Signal;HPM_P1;HPM_P2
2023/03/18 00:00:39;;;;;;;19.73;8.82;;;11.40;77.40;;;;;;5032472;28;20395;-73
2023/03/18 00:03:05;;;;;;;16.08;6.40;;;11.30;79.80;;;;;;5033363;28;20474;-73
2023/03/18 00:05:31;;;;;;;17.73;6.95;;;11.20;81.10;;;;;;5033124;28;20445;-71
2023/03/18 00:07:57;;;;;;;15.93;7.30;;;11.20;80.90;;;;;;5033732;28;20912;-71
2023/03/18 00:10:23;;;;;;;16.92;8.05;;;11.20;81.80;;;;;;5033262;28;20414;-71
2023/03/18 00:12:49;;;;;;;21.80;9.47;;;11.30;80.20;;;;;;5033349;28;20477;-72
2023/03/18 00:15:17;;;;;;;15.87;7.40;;;11.30;80.10;;;;;;5033552;28;20867;-74
2023/03/18 00:17:42;;;;;;;16.15;8.00;;;11.30;79.90;;;;;;5061307;22;20428;-75
2023/03/18 00:20:11;;;;;;;18.47;10.37;;;11.40;79.40;;;;;;5073960;28;20387;-75
2023/03/18 00:22:38;;;;;;;15.73;8.20;;;11.50;77.60;;;;;;5073677;28;20378;-75
2023/03/18 00:25:05;;;;;;;19.98;7.78;;;11.30;79.50;;;;;;5072478;28;20442;-75
2023/03/18 00:27:32;;;;;;;16.15;8.38;;;11.20;81.50;;;;;;5072324;28;20386;-77
2023/03/18 00:29:58;;;;;;;17.43;7.37;;;11.30;81.10;;;;;;5073089;28;20810;-77
2023/03/18 00:32:26;;;;;;;16.47;7.27;;;11.40;78.90;;;;;;5073661;28;20407;-75
2023/03/18 00:34:52;;;;;;;14.13;7.80;;;11.40;78.50;;;;;;5073670;28;20379;-75
2023/03/18 00:37:29;;;;;;;16.50;8.70;;;11.30;80.30;;;;;;5073340;28;20383;-76
2023/03/18 00:40:05;;;;;;;20.67;8.80;;;11.40;79.20;;;;;;5073476;28;20474;-75
2023/03/18 00:42:38;;;;;;;13.50;6.90;;;11.40;79.60;;;;;;5073711;28;20903;-75
2023/03/18 00:45:06;;;;;;;18.67;9.55;;;11.20;81.10;;;;;;5073807;28;20407;-76
2023/03/18 00:47:32;;;;;;;20.27;7.53;;;11.20;81.60;;;;;;5071642;28;20387;-76
2023/03/18 00:49:58;;;;;;;16.67;7.40;;;11.20;82.80;;;;;;5073711;28;20440;-76
2023/03/18 00:52:24;;;;;;;14.13;7.90;;;11.00;84.80;;;;;;5071842;28;20455;-75
2023/03/18 00:54:50;;;;;;;17.17;9.57;;;11.00;85.60;;;;;;5072817;28;20387;-75
2023/03/18 00:57:16;;;;;;;17.37;8.87;;;11.10;85.60;;;;;;5076318;28;20899;-76
2023/03/18 00:59:42;;;;;;;17.03;9.17;;;11.10;85.10;;;;;;5081697;28;20464;-74
2023/03/18 01:02:07;;;;;;;17.23;8.30;;;11.00;86.30;;;;;;5090288;28;20390;-74
2023/03/18 01:04:33;;;;;;;22.50;11.10;;;11.10;86.30;;;;;;5093173;28;20444;-74
2023/03/18 01:07:00;;;;;;;16.57;8.97;;;11.10;87.00;;;;;;5095428;28;20475;-74
2023/03/18 01:09:25;;;;;;;15.43;7.80;;;11.10;85.60;;;;;;5094322;28;20423;-75
2023/03/18 01:11:51;;;;;;;13.53;7.27;;;11.00;86.60;;;;;;5089216;28;20864;-75
2023/03/18 01:14:18;;;;;;;19.05;8.10;;;11.00;87.80;;;;;;5092495;28;20419;-74
2023/03/18 01:16:45;;;;;;;15.45;8.10;;;11.00;88.90;;;;;;5094859;28;20391;-74
2023/03/18 01:19:12;;;;;;;12.70;7.68;;;11.00;87.80;;;;;;5080315;28;20396;-74
2023/03/18 01:21:38;;;;;;;17.13;8.80;;;11.10;87.40;;;;;;5071893;28;20481;-74
2023/03/18 01:24:04;;;;;;;17.00;7.60;;;11.20;85.10;;;;;;5073665;28;20383;-75
2023/03/18 01:26:30;;;;;;;17.80;8.40;;;11.20;85.50;;;;;;5074341;28;20403;-75
2023/03/18 01:28:56;;;;;;;18.95;8.70;;;11.10;87.40;;;;;;5072110;28;20391;-75
2023/03/18 01:31:24;;;;;;;14.77;8.38;;;11.10;88.00;;;;;;5071827;28;20429;-75
2023/03/18 01:33:50;;;;;;;16.98;8.23;;;11.10;88.20;;;;;;5072033;28;20380;-74
2023/03/18 01:36:16;;;;;;;14.23;7.47;;;11.20;86.90;;;;;;5070821;28;20379;-74
2023/03/18 01:38:42;;;;;;;15.40;7.32;;;11.20;87.30;;;;;;5072107;28;20384;-74
2023/03/18 01:41:09;;;;;;;16.02;7.40;;;11.30;85.80;;;;;;5083300;28;20391;-74
2023/03/18 01:43:37;;;;;;;27.37;10.37;;;11.30;86.20;;;;;;5082196;28;20391;-75
2023/03/18 01:46:34;;;;;;;15.48;8.02;;;11.40;85.70;;;;;;5082143;28;20435;-75
2023/03/18 01:49:04;;;;;;;17.13;7.40;;;11.40;84.70;;;;;;5083429;28;20417;-75
2023/03/18 01:51:30;;;;;;;15.68;7.80;;;11.30;85.70;;;;;;5084450;28;20379;-75
2023/03/18 01:53:58;;;;;;;13.65;7.57;;;11.40;86.40;;;;;;5086186;28;20380;-75
2023/03/18 01:56:24;;;;;;;18.83;8.90;;;11.40;85.80;;;;;;5079348;28;20476;-76
2023/03/18 01:58:53;;;;;;;19.25;8.00;;;11.50;84.70;;;;;;5075842;28;20380;-76
2023/03/18 02:01:48;;;;;;;14.50;7.93;;;11.40;85.20;;;;;;5072458;28;20515;-74
2023/03/18 02:04:15;;;;;;;16.60;8.02;;;11.30;87.90;;;;;;5059865;28;20392;-76
2023/03/18 02:06:41;;;;;;;21.73;8.75;;;11.20;89.60;;;;;;5073069;28;20441;-75
2023/03/18 02:09:07;;;;;;;21.65;9.70;;;11.20;90.00;;;;;;5072394;28;20380;-75
2023/03/18 02:11:37;;;;;;;18.47;9.43;;;11.20;91.60;;;;;;5071020;28;20798;-74
2023/03/18 02:14:04;;;;;;;16.90;9.40;;;11.20;93.20;;;;;;5071358;28;20771;-74
2023/03/18 02:16:35;;;;;;;16.10;8.43;;;11.10;93.60;;;;;;5071055;28;20441;-75
2023/03/18 02:19:29;;;;;;;14.50;7.93;;;11.00;94.90;;;;;;5070067;28;20431;-75
2023/03/18 02:22:15;;;;;;;18.75;9.27;;;10.90;96.50;;;;;;5071115;28;20410;-75
2023/03/18 02:25:09;;;;;;;15.75;8.00;;;10.90;97.10;;;;;;5071225;28;20377;-75
2023/03/18 02:27:38;;;;;;;15.45;8.70;;;10.80;98.60;;;;;;5071219;28;20372;-75
2023/03/18 02:30:09;;;;;;;13.25;7.68;;;10.60;99.40;;;;;;5071600;28;20414;-74
2023/03/18 02:32:36;;;;;;;20.25;8.30;;;10.50;99.90;;;;;;5070634;28;20398;-74
2023/03/18 02:35:06;;;;;;;22.33;10.73;;;10.40;99.90;;;;;;5071242;28;20392;-75
2023/03/18 02:37:31;;;;;;;17.77;9.00;;;10.30;99.90;;;;;;5070752;28;20380;-74
2023/03/18 02:40:15;;;;;;;14.10;8.67;;;10.20;99.90;;;;;;5069836;28;20403;-75
2023/03/18 02:42:42;;;;;;;22.38;9.75;;;10.10;99.90;;;;;;5070696;28;20384;-75
2023/03/18 02:45:21;;;;;;;19.73;8.75;;;10.00;99.90;;;;;;5070770;28;20414;-75
2023/03/18 02:47:47;;;;;;;21.42;10.73;;;10.00;99.90;;;;;;5070753;28;20387;-75
2023/03/18 02:50:14;;;;;;;19.88;10.23;;;10.00;99.90;;;;;;5070356;28;20380;-74
2023/03/18 02:52:40;;;;;;;18.60;10.80;;;10.00;99.90;;;;;;5070871;28;20387;-75
2023/03/18 02:55:06;;;;;;;20.63;10.50;;;10.10;99.90;;;;;;5071625;28;20383;-75
2023/03/18 02:57:32;;;;;;;19.80;10.00;;;10.10;99.90;;;;;;5071131;28;20868;-75
2023/03/18 02:59:57;;;;;;;23.20;11.70;;;10.10;99.90;;;;;;5071323;28;20462;-76
2023/03/18 03:02:23;;;;;;;24.52;11.38;;;10.10;99.90;;;;;;5070806;28;20380;-76
2023/03/18 03:04:49;;;;;;;21.35;11.38;;;10.00;99.90;;;;;;5070847;28;20745;-75
2023/03/18 03:07:14;;;;;;;23.08;12.20;;;10.00;99.90;;;;;;5070783;28;20910;-75
2023/03/18 03:09:41;;;;;;;19.00;11.77;;;10.00;99.90;;;;;;5069774;28;20875;-76
2023/03/18 03:12:08;;;;;;;22.50;11.10;;;9.90;99.90;;;;;;5073589;28;20391;-75
2023/03/18 03:14:33;;;;;;;18.10;11.95;;;9.90;99.90;;;;;;5074034;28;20395;-74
2023/03/18 03:16:59;;;;;;;26.45;11.85;;;9.90;99.90;;;;;;5074924;28;20384;-75
2023/03/18 03:19:25;;;;;;;22.40;12.40;;;9.80;99.90;;;;;;5075324;28;20451;-75
2023/03/18 03:21:51;;;;;;;22.83;13.32;;;9.80;99.90;;;;;;5074878;28;20998;-75
2023/03/18 03:24:16;;;;;;;20.40;11.80;;;9.90;99.90;;;;;;5074811;28;20383;-75
2023/03/18 03:26:42;;;;;;;21.03;11.50;;;9.80;99.90;;;;;;5074570;28;20946;-75
2023/03/18 03:29:08;;;;;;;20.40;11.70;;;9.80;99.90;;;;;;5074747;28;20383;-75
2023/03/18 03:31:34;;;;;;;21.63;12.40;;;9.70;99.90;;;;;;5074131;28;20884;-75
2023/03/18 03:34:00;;;;;;;21.73;12.40;;;9.70;99.90;;;;;;5075053;28;20815;-75
2023/03/18 03:36:25;;;;;;;20.30;11.70;;;9.70;99.90;;;;;;5086069;28;20464;-73
2023/03/18 03:38:51;;;;;;;21.90;13.07;;;9.60;99.90;;;;;;5097523;28;20400;-74
2023/03/18 03:41:17;;;;;;;23.87;12.93;;;9.60;99.90;;;;;;5083417;28;20464;-74
2023/03/18 03:43:43;;;;;;;26.83;14.07;;;9.60;99.90;;;;;;5074069;28;20498;-75
2023/03/18 03:46:10;;;;;;;25.15;13.20;;;9.70;99.90;;;;;;5072636;28;20426;-75
2023/03/18 03:48:37;;;;;;;19.48;13.57;;;9.60;99.90;;;;;;5074114;28;20379;-75
2023/03/18 03:51:02;;;;;;;23.98;13.50;;;9.60;99.90;;;;;;5074504;28;20413;-75
2023/03/18 03:53:28;;;;;;;22.80;13.20;;;9.50;99.90;;;;;;5072874;28;20936;-75
2023/03/18 03:55:55;;;;;;;29.40;13.10;;;9.50;99.90;;;;;;5074440;28;20376;-75
2023/03/18 03:58:21;;;;;;;23.33;13.15;;;9.50;99.90;;;;;;5073978;28;20386;-76
2023/03/18 04:00:47;;;;;;;26.40;13.48;;;9.50;99.90;;;;;;5074598;28;20391;-75
2023/03/18 04:03:12;;;;;;;29.60;15.00;;;9.40;99.90;;;;;;5081878;28;20417;-75
2023/03/18 04:05:38;;;;;;;21.53;13.93;;;9.50;99.90;;;;;;5091429;28;20482;-75
2023/03/18 04:08:04;;;;;;;26.30;15.07;;;9.50;99.90;;;;;;5075283;28;20379;-75
2023/03/18 04:10:29;;;;;;;28.20;14.93;;;9.50;99.90;;;;;;5093895;28;20396;-75
2023/03/18 04:12:55;;;;;;;23.70;14.43;;;9.50;99.90;;;;;;5091212;28;20387;-75
2023/03/18 04:15:21;;;;;;;29.77;14.70;;;9.50;99.90;;;;;;5073616;28;20406;-74
2023/03/18 04:17:48;;;;;;;27.65;15.70;;;9.50;99.90;;;;;;5073269;28;20763;-74
2023/03/18 04:20:16;;;;;;;24.63;15.33;;;9.60;99.90;;;;;;5073420;28;20474;-75
2023/03/18 04:22:42;;;;;;;28.63;15.10;;;9.70;99.90;;;;;;5071918;28;20384;-75
2023/03/18 04:25:10;;;;;;;25.85;14.40;;;9.90;99.90;;;;;;5072084;28;20462;-75
2023/03/18 04:27:36;;;;;;;22.08;14.13;;;9.90;99.90;;;;;;5073017;28;20387;-74
2023/03/18 04:30:02;;;;;;;22.38;13.18;;;10.00;99.90;;;;;;5072113;28;20384;-75
2023/03/18 04:32:28;;;;;;;26.40;14.05;;;10.00;99.90;;;;;;5071734;28;20388;-75
2023/03/18 04:34:53;;;;;;;27.07;13.97;;;10.10;99.90;;;;;;5072939;28;20380;-75
2023/03/18 04:37:19;;;;;;;22.57;13.80;;;10.10;99.90;;;;;;5071543;28;20978;-75
2023/03/18 04:39:47;;;;;;;23.20;12.82;;;10.20;99.90;;;;;;5071647;28;20445;-75
2023/03/18 04:42:12;;;;;;;26.00;12.82;;;10.20;99.90;;;;;;5072533;28;20736;-75
2023/03/18 04:44:38;;;;;;;23.50;14.07;;;10.30;99.90;;;;;;5072138;28;20457;-75
2023/03/18 04:47:04;;;;;;;18.47;12.30;;;10.30;99.90;;;;;;5068278;28;20415;-75
2023/03/18 04:49:30;;;;;;;25.60;12.90;;;10.20;99.90;;;;;;5072239;28;20402;-76
2023/03/18 04:51:55;;;;;;;25.60;13.03;;;10.10;99.90;;;;;;5073795;28;20455;-76
2023/03/18 04:54:21;;;;;;;22.30;13.27;;;10.00;99.90;;;;;;5071320;28;20486;-76
2023/03/18 04:56:47;;;;;;;25.30;14.30;;;10.10;99.90;;;;;;5073035;28;20463;-77
2023/03/18 04:59:12;;;;;;;21.93;13.40;;;10.10;99.90;;;;;;5071407;28;20384;-77
2023/03/18 05:01:38;;;;;;;22.97;13.43;;;10.20;99.90;;;;;;5072727;28;20453;-77
2023/03/18 05:04:05;;;;;;;26.83;14.43;;;10.30;99.90;;;;;;5071611;28;20395;-76
2023/03/18 05:06:32;;;;;;;21.17;13.15;;;10.50;99.90;;;;;;5073574;28;20969;-77
2023/03/18 05:08:58;;;;;;;19.75;13.90;;;10.40;99.90;;;;;;5073106;28;20764;-76
2023/03/18 05:11:25;;;;;;;23.05;13.88;;;10.40;99.90;;;;;;5076297;28;20438;-78
2023/03/18 05:13:51;;;;;;;24.40;13.55;;;10.50;99.90;;;;;;5077955;28;20440;-77
2023/03/18 05:16:17;;;;;;;24.50;13.88;;;10.40;99.90;;;;;;5078058;28;20486;-79
2023/03/18 05:18:43;;;;;;;26.85;14.45;;;10.40;99.90;;;;;;5073650;28;20399;-78
2023/03/18 05:21:09;;;;;;;24.75;15.35;;;10.50;99.90;;;;;;5070234;28;20753;-73
2023/03/18 05:23:36;;;;;;;26.88;13.50;;;10.60;99.90;;;;;;5072693;28;20391;-76
2023/03/18 05:26:02;;;;;;;23.27;13.18;;;10.70;99.90;;;;;;5072557;28;20407;-73
2023/03/18 05:28:28;;;;;;;24.90;13.70;;;10.60;99.90;;;;;;5071174;28;20403;-73
2023/03/18 05:30:54;;;;;;;24.47;13.73;;;10.60;99.90;;;;;;5072223;28;20410;-73
2023/03/18 05:33:19;;;;;;;21.98;13.77;;;10.50;99.90;;;;;;5071368;28;20455;-74
2023/03/18 05:35:45;;;;;;;24.55;13.90;;;10.50;99.90;;;;;;5071659;28;20418;-75
2023/03/18 05:38:11;;;;;;;21.52;12.52;;;10.40;99.90;;;;;;5071961;28;20756;-76
2023/03/18 05:40:37;;;;;;;23.88;13.90;;;10.40;99.90;;;;;;5071573;28;20453;-75
2023/03/18 05:43:03;;;;;;;25.75;13.30;;;10.40;99.90;;;;;;5072195;28;20395;-75
2023/03/18 05:45:29;;;;;;;22.05;13.43;;;10.50;99.90;;;;;;5072302;28;20404;-75
2023/03/18 05:47:56;;;;;;;26.40;14.33;;;10.50;99.90;;;;;;5070501;28;20387;-75
2023/03/18 05:50:32;;;;;;;17.15;12.10;;;10.60;99.90;;;;;;5072538;28;20383;-75
2023/03/18 05:52:59;;;;;;;21.77;13.45;;;10.60;99.90;;;;;;5071535;28;20388;-75
2023/03/18 05:55:27;;;;;;;24.23;12.67;;;10.60;99.90;;;;;;5073450;28;20728;-75
2023/03/18 05:57:53;;;;;;;23.60;12.40;;;10.50;99.90;;;;;;5072435;28;20391;-76
2023/03/18 06:00:19;;;;;;;21.35;12.85;;;10.50;99.90;;;;;;5072204;28;20768;-74
2023/03/18 06:02:45;;;;;;;23.48;12.27;;;10.50;99.90;;;;;;5070238;28;20383;-75
2023/03/18 06:05:11;;;;;;;23.27;14.30;;;10.40;99.90;;;;;;5070942;28;20824;-75
2023/03/18 06:07:37;;;;;;;24.38;13.02;;;10.60;99.90;;;;;;5077657;28;20468;-75
2023/03/18 06:10:03;;;;;;;23.67;12.55;;;10.50;99.90;;;;;;5085138;28;20388;-75
2023/03/18 06:12:28;;;;;;;21.60;12.30;;;10.50;99.90;;;;;;5080733;28;20402;-75
2023/03/18 06:14:54;;;;;;;24.63;12.90;;;10.60;99.90;;;;;;5071759;28;20384;-75
2023/03/18 06:17:20;;;;;;;22.07;12.60;;;10.50;99.90;;;;;;5085742;22;20392;31
2023/03/18 06:19:47;;;;;;;21.20;12.60;;;10.50;99.90;;;;;;5029287;28;20409;-72
2023/03/18 06:22:14;;;;;;;21.77;12.67;;;10.60;99.90;;;;;;5030708;28;20418;-72
2023/03/18 06:24:40;;;;;;;21.73;12.10;;;10.60;99.90;;;;;;5030375;28;20399;-77
2023/03/18 06:27:06;;;;;;;22.77;13.20;;;10.60;99.90;;;;;;5030207;28;20418;-72
2023/03/18 06:29:32;;;;;;;19.93;12.27;;;10.70;99.90;;;;;;5030416;28;20403;-72
2023/03/18 06:31:58;;;;;;;20.00;12.35;;;10.80;99.90;;;;;;5028768;28;20405;-72
2023/03/18 06:34:23;;;;;;;19.77;12.00;;;10.80;99.90;;;;;;5030636;28;20391;-73
2023/03/18 06:36:49;;;;;;;22.52;14.60;;;10.80;99.90;;;;;;5029241;28;20403;-72
2023/03/18 06:39:15;;;;;;;20.77;13.50;;;10.80;99.90;;;;;;5030560;28;20448;-73
2023/03/18 06:41:40;;;;;;;22.97;12.97;;;10.80;99.90;;;;;;5030336;28;20868;-72
2023/03/18 06:44:06;;;;;;;26.20;13.10;;;10.70;99.90;;;;;;5030254;28;20403;-73
2023/03/18 06:46:32;;;;;;;23.53;13.13;;;10.70;99.90;;;;;;5032340;28;20529;-73
2023/03/18 06:48:57;;;;;;;22.25;13.35;;;10.60;99.90;;;;;;5034767;28;20395;-73
2023/03/18 06:51:23;;;;;;;21.27;12.35;;;10.60;99.90;;;;;;5033334;28;20375;-72
2023/03/18 06:53:50;;;;;;;18.95;12.27;;;10.50;99.90;;;;;;5034408;28;20430;-73
2023/03/18 06:56:15;;;;;;;19.80;13.00;;;10.50;99.90;;;;;;5033963;28;20807;-72
2023/03/18 06:58:41;;;;;;;20.45;13.25;;;10.40;99.90;;;;;;5033566;28;20456;-72
2023/03/18 07:01:08;;;;;;;29.20;13.50;;;10.30;99.90;;;;;;5034324;28;20379;-73
2023/03/18 07:03:34;;;;;;;26.25;14.50;;;10.40;99.90;;;;;;5034377;28;20419;-73
2023/03/18 07:06:01;;;;;;;25.27;13.52;;;10.40;99.90;;;;;;5033831;28;20450;-78
2023/03/18 07:08:28;;;;;;;21.50;12.32;;;10.60;99.90;;;;;;5034769;28;20386;-72
2023/03/18 07:10:53;;;;;;;20.92;12.65;;;10.90;99.90;;;;;;5034330;28;20486;-73
2023/03/18 07:13:19;;;;;;;18.45;11.57;;;10.90;99.90;;;;;;5034109;28;20397;-73
2023/03/18 07:15:45;;;;;;;20.30;13.57;;;11.10;99.90;;;;;;5032911;28;20441;-71
2023/03/18 07:18:10;;;;;;;20.58;12.57;;;11.30;99.90;;;;;;5034338;28;20894;-72
2023/03/18 07:20:36;;;;;;;19.30;12.10;;;11.40;99.80;;;;;;5032853;28;20406;-72
2023/03/18 07:23:02;;;;;;;18.27;11.90;;;11.50;94.10;;;;;;5033917;28;20874;-73
2023/03/18 07:25:30;;;;;;;21.67;12.45;;;11.50;95.00;;;;;;5033813;28;20479;-72
2023/03/18 07:27:56;;;;;;;21.75;11.65;;;11.60;94.10;;;;;;5034056;28;20386;-73
2023/03/18 07:30:22;;;;;;;23.85;12.65;;;11.80;92.90;;;;;;5033849;28;20427;-72
2023/03/18 07:32:48;;;;;;;23.17;11.07;;;11.80;91.30;;;;;;5033851;28;20485;-72
2023/03/18 07:35:14;;;;;;;18.70;10.55;;;12.00;86.90;;;;;;5034005;28;20887;-73
2023/03/18 07:37:40;;;;;;;16.83;10.00;;;12.10;85.70;;;;;;5033881;28;20394;-72
2023/03/18 07:40:07;;;;;;;16.77;10.77;;;12.10;83.60;;;;;;5033746;28;20390;-72
2023/03/18 07:42:33;;;;;;;21.10;10.68;;;12.20;82.40;;;;;;5033777;28;20410;-74
2023/03/18 07:44:58;;;;;;;18.67;11.52;;;12.30;81.20;;;;;;5033841;28;20383;-72
2023/03/18 07:47:24;;;;;;;14.30;9.70;;;12.40;81.30;;;;;;5034738;28;20387;-74
2023/03/18 07:49:53;;;;;;;21.83;11.27;;;12.40;78.40;;;;;;5033273;28;20427;-73
2023/03/18 07:52:19;;;;;;;15.88;10.30;;;12.60;79.40;;;;;;5033824;28;20474;-73
2023/03/18 07:54:44;;;;;;;15.83;10.63;;;12.80;75.60;;;;;;5033132;28;20450;-73
2023/03/18 07:57:10;;;;;;;14.93;8.57;;;13.10;73.30;;;;;;5034166;28;20427;-74
2023/03/18 07:59:39;;;;;;;18.23;8.73;;;13.30;69.80;;;;;;5033753;28;20482;-72
2023/03/18 08:02:06;;;;;;;13.57;8.33;;;13.40;67.80;;;;;;5035161;28;20816;-74
2023/03/18 08:04:32;;;;;;;16.52;9.10;;;13.50;65.40;;;;;;5036166;28;20411;-74
2023/03/18 08:06:58;;;;;;;14.33;8.50;;;13.70;63.70;;;;;;5036434;28;20883;-73
2023/03/18 08:09:25;;;;;;;12.00;7.63;;;14.10;58.70;;;;;;5035977;28;20391;-73
2023/03/18 08:11:51;;;;;;;13.27;7.93;;;14.20;57.80;;;;;;5035880;28;20784;-73
2023/03/18 08:14:16;;;;;;;11.70;7.20;;;14.40;56.60;;;;;;5037731;28;20386;-74
2023/03/18 08:16:42;;;;;;;14.77;6.73;;;14.40;54.10;;;;;;5038918;28;20387;-74
2023/03/18 08:19:07;;;;;;;9.55;6.15;;;14.60;51.80;;;;;;5039093;28;20386;-74
2023/03/18 08:21:33;;;;;;;14.73;7.60;;;14.60;51.60;;;;;;5034706;28;20391;-74
2023/03/18 08:23:58;;;;;;;16.10;10.93;;;14.70;52.90;;;;;;5036517;28;20406;-71
2023/03/18 08:26:24;;;;;;;13.73;7.60;;;14.70;52.50;;;;;;5034495;28;20410;-73
2023/03/18 08:28:49;;;;;;;12.73;7.20;;;14.80;51.60;;;;;;5032940;28;20736;-73
2023/03/18 08:31:15;;;;;;;8.68;5.85;;;14.80;48.20;;;;;;5032385;28;20479;-72
2023/03/18 08:33:41;;;;;;;11.83;6.40;;;14.70;49.80;;;;;;5033081;28;20391;-72
2023/03/18 08:36:07;;;;;;;11.50;5.60;;;15.00;48.40;;;;;;5032916;28;20762;-73
2023/03/18 08:38:33;;;;;;;12.35;7.40;;;15.10;47.10;;;;;;5032386;28;20469;-72
2023/03/18 08:40:59;;;;;;;14.20;6.20;;;15.10;46.00;;;;;;5032625;28;20391;-72
2023/03/18 08:43:25;;;;;;;8.67;5.23;;;15.00;46.80;;;;;;5034308;28;20387;-74
2023/03/18 08:45:54;;;;;;;9.05;5.10;;;15.30;44.30;;;;;;5038675;28;20414;-74
2023/03/18 08:48:21;;;;;;;9.70;5.10;;;15.10;44.90;;;;;;5036860;28;20466;-73
2023/03/18 08:50:47;;;;;;;9.70;4.53;;;15.10;44.30;;;;;;5032524;28;20883;-72
2023/03/18 08:53:13;;;;;;;12.30;5.30;;;15.20;43.50;;;;;;5032191;28;20457;-74
2023/03/18 08:55:39;;;;;;;11.07;6.00;;;15.10;43.50;;;;;;5032293;28;20474;-72
2023/03/18 08:58:06;;;;;;;10.10;5.38;;;15.10;44.60;;;;;;5031770;28;20470;-73
2023/03/18 09:00:35;;;;;;;11.48;5.10;;;14.70;47.40;;;;;;5030672;28;20387;-73
2023/03/18 09:03:02;;;;;;;9.32;4.88;;;14.60;47.00;;;;;;5031672;28;20466;-74
2023/03/18 09:05:29;;;;;;;9.85;4.93;;;14.60;47.70;;;;;;5031880;28;20836;-74
2023/03/18 09:07:55;;;;;;;7.13;4.55;;;14.60;47.50;;;;;;5031083;28;20379;-73
2023/03/18 09:10:20;;;;;;;7.78;4.70;;;14.80;47.00;;;;;;5031501;28;20390;-73
2023/03/18 09:12:46;;;;;;;8.40;4.93;;;14.80;46.50;;;;;;5031802;28;20422;-74
2023/03/18 09:15:13;;;;;;;11.27;5.82;;;14.80;45.90;;;;;;5031732;28;20391;-73
2023/03/18 09:17:39;;;;;;;9.95;5.75;;;14.80;45.80;;;;;;5031732;28;20425;-74
2023/03/18 09:20:10;;;;;;;8.13;4.90;;;14.80;47.40;;;;;;5032030;28;20446;-74
2023/03/18 09:22:37;;;;;;;9.90;5.30;;;14.80;46.40;;;;;;5031654;28;20394;-73
2023/03/18 09:25:03;;;;;;;9.48;5.97;;;14.90;43.90;;;;;;5031603;28;20745;-73
2023/03/18 09:27:29;;;;;;;7.90;5.20;;;14.90;45.30;;;;;;5031545;28;20836;-73
2023/03/18 09:29:55;;;;;;;8.43;5.25;;;15.00;45.20;;;;;;5030692;28;20490;-73
2023/03/18 09:32:21;;;;;;;8.98;5.63;;;15.00;43.40;;;;;;5031455;28;20390;-74
2023/03/18 09:34:47;;;;;;;10.55;4.40;;;14.80;44.40;;;;;;5031555;28;20744;-74
2023/03/18 09:37:13;;;;;;;8.20;5.53;;;14.90;44.10;;;;;;5031496;28;20474;-73
2023/03/18 09:39:40;;;;;;;11.93;4.80;;;15.00;44.00;;;;;;5031918;28;20403;-73
2023/03/18 09:42:27;;;;;;;8.20;4.70;;;15.10;44.70;;;;;;5031360;28;20391;-75
2023/03/18 09:44:57;;;;;;;7.60;4.70;;;15.20;41.90;;;;;;5031521;28;20387;-73
2023/03/18 09:47:45;;;;;;;11.05;4.53;;;15.40;40.30;;;;;;5031587;28;20395;-73
2023/03/18 09:50:30;;;;;;;12.50;5.10;;;15.30;41.00;;;;;;5031601;28;20376;-73
2023/03/18 09:53:29;;;;;;;10.05;5.60;;;15.50;40.30;;;;;;5031317;28;20383;-73
2023/03/18 09:55:59;;;;;;;7.17;5.27;;;15.50;41.50;;;;;;5031260;28;20415;-73
2023/03/18 09:58:27;;;;;;;8.82;5.50;;;15.50;40.60;;;;;;5029830;28;20756;-72
2023/03/18 10:00:58;;;;;;;13.53;7.70;;;15.10;41.50;;;;;;5031129;28;20402;-73
2023/03/18 10:03:38;;;;;;;8.60;4.50;;;15.40;41.00;;;;;;5030202;28;20413;-73
2023/03/18 10:06:15;;;;;;;7.97;4.47;;;15.60;38.30;;;;;;5031493;28;20564;-73
2023/03/18 10:09:03;;;;;;;9.40;4.90;;;15.40;39.50;;;;;;5032402;28;20384;-74
2023/03/18 10:11:41;;;;;;;8.50;4.38;;;15.30;40.60;;;;;;5036381;28;20450;-74
2023/03/18 10:14:10;;;;;;;6.03;4.50;;;15.50;38.60;;;;;;5047542;28;20505;-73
2023/03/18 10:17:03;;;;;;;9.23;4.70;;;15.60;37.30;;;;;;5045684;28;20395;-73
2023/03/18 10:19:29;;;;;;;6.80;4.00;;;15.70;36.60;;;;;;5034244;28;20488;-73
2023/03/18 10:22:10;;;;;;;6.38;3.38;;;15.70;36.90;;;;;;5032943;28;20379;-74
2023/03/18 10:25:15;;;;;;;9.05;3.55;;;15.80;34.50;;;;;;5043636;28;20379;-74
2023/03/18 10:27:56;;;;;;;8.13;4.50;;;15.90;34.80;;;;;;5031518;28;20454;-73
2023/03/18 10:31:05;;;;;;;6.22;3.70;;;16.10;35.70;;;;;;5029926;28;20816;-73
2023/03/18 10:33:59;;;;;;;6.20;4.18;;;16.20;33.20;;;;;;5029341;28;20423;-73
2023/03/18 10:36:58;;;;;;;8.48;3.60;;;16.10;34.50;;;;;;5030573;28;20379;-73
2023/03/18 10:39:26;;;;;;;5.63;3.63;;;16.20;33.40;;;;;;5029915;28;20489;-72
2023/03/18 10:41:53;;;;;;;7.78;4.20;;;16.10;34.30;;;;;;5030313;28;20413;-74
2023/03/18 10:44:36;;;;;;;8.53;4.67;;;16.20;34.40;;;;;;5030372;28;20470;-74
2023/03/18 10:47:22;;;;;;;7.47;3.67;;;16.50;32.90;;;;;;5030238;28;20426;-74
2023/03/18 10:50:13;;;;;;;9.45;3.00;;;16.30;32.10;;;;;;5030553;28;20379;-73
2023/03/18 10:53:01;;;;;;;6.50;3.05;;;16.30;31.40;;;;;;5030292;28;20413;-73
2023/03/18 10:55:34;;;;;;;6.32;2.33;;;16.30;30.30;;;;;;5030553;28;20393;-73
2023/03/18 10:58:11;;;;;;;4.90;2.40;;;16.40;28.70;;;;;;5030570;28;20379;-73
2023/03/18 11:00:37;;;;;;;4.43;2.45;;;16.40;28.50;;;;;;5029171;28;20400;-72
2023/03/18 11:03:04;;;;;;;5.38;3.53;;;16.40;29.60;;;;;;5030265;28;20391;-72
2023/03/18 11:05:34;;;;;;;3.97;2.30;;;16.60;31.10;;;;;;5030297;28;20508;-73
2023/03/18 11:08:07;;;;;;;7.07;2.90;;;16.90;29.50;;;;;;5030383;28;20375;-73
2023/03/18 11:10:44;;;;;;;7.00;3.70;;;17.10;28.20;;;;;;5028918;28;20788;-74
2023/03/18 11:13:16;;;;;;;8.30;3.22;;;17.40;26.90;;;;;;5030064;28;20382;-74
2023/03/18 11:15:48;;;;;;;5.35;3.60;;;17.30;28.30;;;;;;5030550;28;20379;-74
2023/03/18 11:18:18;;;;;;;7.47;3.40;;;17.30;28.20;;;;;;5028720;28;20430;-74
2023/03/18 11:20:48;;;;;;;6.20;3.60;;;17.40;27.10;;;;;;5030414;28;20764;-74
2023/03/18 11:23:44;;;;;;;4.53;3.20;;;17.50;27.30;;;;;;5030007;28;20752;-73
2023/03/18 11:26:19;;;;;;;6.55;3.80;;;17.80;25.90;;;;;;5033690;28;20986;-74
2023/03/18 11:28:46;;;;;;;3.63;3.22;;;17.70;25.70;;;;;;5030740;28;20375;-73
2023/03/18 11:31:17;;;;;;;6.80;3.60;;;17.50;25.70;;;;;;5030777;28;20398;-73
2023/03/18 11:33:43;;;;;;;10.80;4.05;;;17.50;25.30;;;;;;5033497;28;20385;-74
2023/03/18 11:36:17;;;;;;;5.50;3.67;;;17.70;25.30;;;;;;5033669;28;20391;-74
2023/03/18 11:38:43;;;;;;;5.17;3.00;;;17.40;26.00;;;;;;5032743;28;20402;-74
2023/03/18 11:41:23;;;;;;;7.30;3.88;;;17.40;26.60;;;;;;5033644;28;20390;-73
2023/03/18 11:43:59;;;;;;;8.02;3.80;;;17.40;25.90;;;;;;5033860;28;20415;-73
2023/03/18 11:46:37;;;;;;;6.95;4.30;;;17.80;25.40;;;;;;5033462;28;20414;-73
2023/03/18 11:49:04;;;;;;;4.10;3.30;;;17.80;25.30;;;;;;5033288;28;20379;-73
2023/03/18 11:51:33;;;;;;;5.22;3.85;;;17.80;24.70;;;;;;5033297;28;20386;-74
2023/03/18 11:54:12;;;;;;;8.00;3.80;;;17.80;24.30;;;;;;5033134;28;20395;-72
2023/03/18 11:56:50;;;;;;;6.35;4.32;;;17.70;25.30;;;;;;5033447;28;20383;-73
2023/03/18 11:59:41;;;;;;;7.78;3.47;;;17.90;25.10;;;;;;5033432;28;20737;-73
2023/03/18 12:02:37;;;;;;;11.30;3.70;;;17.60;25.10;;;;;;5033459;28;20391;-73
2023/03/18 12:05:20;;;;;;;6.80;3.90;;;17.90;24.60;;;;;;5033969;28;20830;-74
2023/03/18 12:07:57;;;;;;;9.70;4.30;;;17.80;25.30;;;;;;5032755;28;20383;-74
2023/03/18 12:10:30;;;;;;;6.82;3.90;;;17.70;25.70;;;;;;5033618;28;20395;-72
2023/03/18 12:13:28;;;;;;;6.70;4.20;;;18.10;24.80;;;;;;5033298;28;20399;-74
2023/03/18 12:16:09;;;;;;;9.30;4.53;;;18.00;25.00;;;;;;5033840;28;20391;-74
2023/03/18 12:18:55;;;;;;;13.68;5.90;;;18.60;23.70;;;;;;5034314;28;20425;-73
2023/03/18 12:21:27;;;;;;;7.47;5.40;;;18.60;23.40;;;;;;5034433;28;20551;-73
2023/03/18 12:24:26;;;;;;;9.40;5.60;;;18.50;23.60;;;;;;5041756;28;20872;-73
2023/03/18 12:27:25;;;;;;;7.53;4.97;;;18.40;23.30;;;;;;5032895;28;20914;-71
2023/03/18 12:30:15;;;;;;;9.02;5.88;;;18.90;22.90;;;;;;5033096;28;20378;-71
2023/03/18 12:33:02;;;;;;;8.20;5.70;;;19.20;22.00;;;;;;5032213;28;20466;-72
2023/03/18 12:35:58;;;;;;;10.15;5.10;;;19.30;21.50;;;;;;5032906;28;20393;-72
2023/03/18 12:38:49;;;;;;;8.75;4.82;;;19.30;21.30;;;;;;5032949;28;20383;-74
2023/03/18 12:41:26;;;;;;;6.80;4.18;;;19.20;21.30;;;;;;5032953;28;20440;-73
2023/03/18 12:44:09;;;;;;;7.03;4.10;;;18.80;21.90;;;;;;5032306;28;20433;-74
2023/03/18 12:46:42;;;;;;;9.70;4.43;;;19.00;22.00;;;;;;5033060;28;20411;-72
2023/03/18 12:49:11;;;;;;;8.50;4.27;;;18.90;22.30;;;;;;5032618;28;20894;-73